createdAt,value
2022-09-22T00:00:52.203Z,99.99
2022-09-22T00:01:52.220Z,99.99
2022-09-22T00:02:52.160Z,99.99
2022-09-22T00:03:52.163Z,99.99
2022-09-22T00:04:52.143Z,99.99
2022-09-22T00:05:52.135Z,99.99
2022-09-22T00:06:52.123Z,99.99
2022-09-22T00:07:52.121Z,99.99
2022-09-22T00:08:52.107Z,99.99
2022-09-22T00:09:52.098Z,99.99
2022-09-22T00:10:52.090Z,99.99
2022-09-22T00:11:52.083Z,99.99
2022-09-22T00:12:52.080Z,99.99
2022-09-22T00:13:52.066Z,99.99
2022-09-22T00:14:52.055Z,99.99
2022-09-22T00:15:52.081Z,99.99
2022-09-22T00:16:52.039Z,99.99
2022-09-22T00:17:52.029Z,99.99
2022-09-22T00:18:52.030Z,99.99
2022-09-22T00:19:52.011Z,99.99
2022-09-22T00:20:52.037Z,99.99
2022-09-22T00:21:51.999Z,99.99
2022-09-22T00:22:51.987Z,99.99
2022-09-22T00:23:51.978Z,99.99
2022-09-22T00:24:51.969Z,99.99
2022-09-22T00:25:51.959Z,99.99
2022-09-22T00:26:51.952Z,99.99
2022-09-22T00:27:51.965Z,99.99
2022-09-22T00:28:51.936Z,99.99
2022-09-22T00:29:51.926Z,99.99
2022-09-22T00:30:51.916Z,99.99
2022-09-22T00:31:51.941Z,99.99
2022-09-22T00:32:51.900Z,99.99
2022-09-22T00:33:51.890Z,99.99
2022-09-22T00:34:51.881Z,99.99
2022-09-22T00:35:51.874Z,99.99
2022-09-22T00:36:51.863Z,99.99
2022-09-22T00:37:51.853Z,99.99
2022-09-22T00:38:51.845Z,99.99
2022-09-22T00:39:51.836Z,99.99
2022-09-22T00:40:51.827Z,99.99
2022-09-22T00:41:51.817Z,99.99
2022-09-22T00:42:51.811Z,99.99
2022-09-22T00:43:51.800Z,99.99
2022-09-22T00:44:51.794Z,99.99
2022-09-22T00:45:51.782Z,99.99
2022-09-22T00:46:51.839Z,99.99
2022-09-22T00:47:51.765Z,99.99
2022-09-22T00:48:51.757Z,99.99
2022-09-22T00:49:51.748Z,99.99
2022-09-22T00:50:51.749Z,99.99
2022-09-22T00:51:51.730Z,99.99
2022-09-22T00:52:51.723Z,99.99
2022-09-22T00:53:51.711Z,99.99
2022-09-22T00:54:51.703Z,99.99
2022-09-22T00:55:51.697Z,99.99
2022-09-22T00:56:51.686Z,99.99
2022-09-22T00:57:51.675Z,99.99
2022-09-22T00:58:51.665Z,99.99
2022-09-22T00:59:51.656Z,99.99
2022-09-22T01:00:51.703Z,99.99
2022-09-22T01:01:51.711Z,99.99
2022-09-22T01:02:51.631Z,99.99
2022-09-22T01:03:51.621Z,99.99
2022-09-22T01:04:51.613Z,99.99
2022-09-22T01:05:51.605Z,99.99
2022-09-22T01:06:51.596Z,99.99
2022-09-22T01:07:51.587Z,99.99
2022-09-22T01:08:51.576Z,99.99
2022-09-22T01:09:51.603Z,99.99
2022-09-22T01:10:51.559Z,99.99
2022-09-22T01:11:51.558Z,99.99
2022-09-22T01:12:51.541Z,99.99
2022-09-22T01:13:51.532Z,99.99
2022-09-22T01:14:51.523Z,99.99
2022-09-22T01:15:51.548Z,99.99
2022-09-22T01:16:51.505Z,99.99
2022-09-22T01:17:51.493Z,99.99
2022-09-22T01:18:51.481Z,99.99
2022-09-22T01:19:51.477Z,99.99
2022-09-22T01:20:51.466Z,99.99
2022-09-22T01:21:51.459Z,99.99
2022-09-22T01:22:51.447Z,99.99
2022-09-22T01:23:51.439Z,99.99
2022-09-22T01:24:51.440Z,99.99
2022-09-22T01:25:51.420Z,99.99
2022-09-22T01:26:51.419Z,99.99
2022-09-22T01:27:51.402Z,99.99
2022-09-22T01:28:51.392Z,99.99
2022-09-22T01:29:51.382Z,99.99
2022-09-22T01:30:51.429Z,99.99
2022-09-22T01:31:51.365Z,99.99
2022-09-22T01:32:51.356Z,99.99
2022-09-22T01:33:51.346Z,99.99
2022-09-22T01:34:51.337Z,99.99
2022-09-22T01:35:51.326Z,99.99
2022-09-22T01:36:51.323Z,99.99
2022-09-22T01:37:51.311Z,99.99
2022-09-22T01:38:51.297Z,99.99
2022-09-22T01:39:59.964Z,99.99
2022-09-22T01:41:55.272Z,99.99
2022-09-22T01:42:55.251Z,99.99
2022-09-22T01:44:48.184Z,99.99
2022-09-22T01:45:48.169Z,99.99
2022-09-22T01:48:03.233Z,99.99
2022-09-22T01:49:03.211Z,99.99
2022-09-22T01:51:07.216Z,99.99
2022-09-22T01:52:07.202Z,99.99
2022-09-22T01:54:11.197Z,99.99
2022-09-22T01:55:11.171Z,99.99
2022-09-22T01:57:04.092Z,99.99
2022-09-22T01:58:04.074Z,99.99
2022-09-22T02:00:08.564Z,99.99
2022-09-22T02:01:12.275Z,99.99
2022-09-22T02:02:08.671Z,99.99
2022-09-22T02:03:08.529Z,99.99
2022-09-22T02:04:08.521Z,99.99
2022-09-22T02:05:08.510Z,99.99
2022-09-22T02:06:08.501Z,99.99
2022-09-22T02:07:08.491Z,99.99
2022-09-22T02:08:08.479Z,99.99
2022-09-22T02:09:08.472Z,99.99
2022-09-22T02:10:08.462Z,99.99
2022-09-22T02:11:08.453Z,99.99
2022-09-22T02:12:08.443Z,99.99
2022-09-22T02:13:08.436Z,99.99
2022-09-22T02:14:08.468Z,99.99
2022-09-22T02:15:08.414Z,99.99
2022-09-22T02:16:08.477Z,99.99
2022-09-22T02:17:08.394Z,99.99
2022-09-22T02:18:08.383Z,99.99
2022-09-22T02:19:13.100Z,99.99
2022-09-22T02:20:08.368Z,99.99
2022-09-22T02:21:08.361Z,99.99
2022-09-22T02:22:08.347Z,99.99
2022-09-22T02:23:08.337Z,99.99
2022-09-22T02:24:08.328Z,99.99
2022-09-22T02:25:08.320Z,99.99
2022-09-22T02:26:08.313Z,99.99
2022-09-22T02:27:08.299Z,99.99
2022-09-22T02:28:08.291Z,99.99
2022-09-22T02:29:08.374Z,99.99
2022-09-22T02:30:08.314Z,99.99
2022-09-22T02:31:20.135Z,99.99
2022-09-22T02:32:08.288Z,99.99
2022-09-22T02:33:08.241Z,99.99
2022-09-22T02:34:08.234Z,99.99
2022-09-22T02:35:08.220Z,99.99
2022-09-22T02:36:08.227Z,99.99
2022-09-22T02:37:08.206Z,99.99
2022-09-22T02:38:08.193Z,99.99
2022-09-22T02:39:08.187Z,99.99
2022-09-22T02:40:08.213Z,99.99
2022-09-22T02:41:08.162Z,99.99
2022-09-22T02:42:08.153Z,99.99
2022-09-22T02:43:08.145Z,99.99
2022-09-22T02:44:08.191Z,99.99
2022-09-22T02:45:08.124Z,99.99
2022-09-22T02:46:08.147Z,99.99
2022-09-22T02:47:08.108Z,99.99
2022-09-22T02:48:08.090Z,99.99
2022-09-22T02:49:08.083Z,99.99
2022-09-22T02:50:08.073Z,99.99
2022-09-22T02:51:08.062Z,99.99
2022-09-22T02:52:08.058Z,99.99
2022-09-22T02:53:08.042Z,99.99
2022-09-22T02:54:08.035Z,99.99
2022-09-22T02:55:08.030Z,99.99
2022-09-22T02:56:08.015Z,99.99
2022-09-22T02:57:08.008Z,99.99
2022-09-22T02:58:07.997Z,99.99
2022-09-22T02:59:07.984Z,99.99
2022-09-22T03:00:07.976Z,99.99
2022-09-22T03:01:07.996Z,99.99
2022-09-22T03:02:07.956Z,99.99
2022-09-22T03:03:07.946Z,99.99
2022-09-22T03:04:07.937Z,99.99
2022-09-22T03:05:07.971Z,99.99
2022-09-22T03:06:07.917Z,99.99
2022-09-22T03:07:07.907Z,99.99
2022-09-22T03:08:07.901Z,99.99
2022-09-22T03:09:07.961Z,99.99
2022-09-22T03:10:07.879Z,99.99
2022-09-22T03:11:07.866Z,99.99
2022-09-22T03:12:07.858Z,99.99
2022-09-22T03:13:16.906Z,99.99
2022-09-22T03:14:07.839Z,99.99
2022-09-22T03:15:07.827Z,99.99
2022-09-22T03:16:07.884Z,99.99
2022-09-22T03:17:07.806Z,99.99
2022-09-22T03:18:07.802Z,99.99
2022-09-22T03:19:07.788Z,99.99
2022-09-22T03:20:07.777Z,99.99
2022-09-22T03:21:07.771Z,99.99
2022-09-22T03:22:07.757Z,99.99
2022-09-22T03:23:07.747Z,99.99
2022-09-22T03:24:07.737Z,99.99
2022-09-22T03:25:07.731Z,99.99
2022-09-22T03:26:07.718Z,99.99
2022-09-22T03:27:07.713Z,99.99
2022-09-22T03:28:07.703Z,99.99
2022-09-22T03:29:07.761Z,99.99
2022-09-22T03:30:07.681Z,99.99
2022-09-22T03:31:07.713Z,99.99
2022-09-22T03:32:07.660Z,99.99
2022-09-22T03:33:07.648Z,99.99
2022-09-22T03:34:07.641Z,99.99
2022-09-22T03:35:07.630Z,99.99
2022-09-22T03:36:07.619Z,99.99
2022-09-22T03:37:07.610Z,99.99
2022-09-22T03:38:07.598Z,99.99
2022-09-22T03:39:07.588Z,99.99
2022-09-22T03:40:07.630Z,99.99
2022-09-22T03:41:07.565Z,99.99
2022-09-22T03:42:07.557Z,99.99
2022-09-22T03:43:07.551Z,99.99
2022-09-22T03:44:07.537Z,99.99
2022-09-22T03:45:07.530Z,99.99
2022-09-22T03:46:07.576Z,99.99
2022-09-22T03:47:07.507Z,99.99
2022-09-22T03:48:07.498Z,99.99
2022-09-22T03:49:07.489Z,99.99
2022-09-22T03:50:07.477Z,99.99
2022-09-22T03:51:07.468Z,99.99
2022-09-22T03:52:07.460Z,99.99
2022-09-22T03:53:07.446Z,99.99
2022-09-22T03:54:07.506Z,99.99
2022-09-22T03:55:07.430Z,99.99
2022-09-22T03:56:07.415Z,99.99
2022-09-22T03:57:07.407Z,99.99
2022-09-22T03:58:07.394Z,99.99
2022-09-22T03:59:07.383Z,99.99
2022-09-22T04:00:07.381Z,99.99
2022-09-22T04:01:07.427Z,99.99
2022-09-22T04:02:07.387Z,99.99
2022-09-22T04:03:07.346Z,99.99
2022-09-22T04:04:07.336Z,99.99
2022-09-22T04:05:07.324Z,99.99
2022-09-22T04:06:07.316Z,99.99
2022-09-22T04:07:07.758Z,99.99
2022-09-22T04:08:07.295Z,99.99
2022-09-22T04:09:07.474Z,99.99
2022-09-22T04:10:07.275Z,99.99
2022-09-22T04:11:07.262Z,99.99
2022-09-22T04:12:07.254Z,99.99
2022-09-22T04:13:07.242Z,99.99
2022-09-22T04:14:07.239Z,99.99
2022-09-22T04:15:07.221Z,99.99
2022-09-22T04:16:07.214Z,99.99
2022-09-22T04:17:07.207Z,99.99
2022-09-22T04:18:07.188Z,99.99
2022-09-22T04:19:07.180Z,99.99
2022-09-22T04:20:07.177Z,99.99
2022-09-22T04:21:07.160Z,99.99
2022-09-22T04:22:07.151Z,99.99
2022-09-22T04:23:07.145Z,99.99
2022-09-22T04:24:07.130Z,99.99
2022-09-22T04:25:07.123Z,99.99
2022-09-22T04:26:07.110Z,99.99
2022-09-22T04:27:21.570Z,99.99
2022-09-22T04:28:07.091Z,99.99
2022-09-22T04:29:07.079Z,99.99
2022-09-22T04:30:07.069Z,99.99
2022-09-22T04:31:07.177Z,99.99
2022-09-22T04:32:07.049Z,99.99
2022-09-22T04:33:07.041Z,99.99
2022-09-22T04:34:07.757Z,99.99
2022-09-22T04:35:07.013Z,99.99
2022-09-22T04:36:07.005Z,99.99
2022-09-22T04:37:06.997Z,99.99
2022-09-22T04:38:06.988Z,99.99
2022-09-22T04:39:06.985Z,99.99
2022-09-22T04:40:07.005Z,99.99
2022-09-22T04:41:06.957Z,99.99
2022-09-22T04:42:06.944Z,99.99
2022-09-22T04:43:06.935Z,99.99
2022-09-22T04:44:06.926Z,99.99
2022-09-22T04:45:06.921Z,99.99
2022-09-22T04:46:06.947Z,99.99
2022-09-22T04:47:06.889Z,99.99
2022-09-22T04:48:06.889Z,99.99
2022-09-22T04:49:06.871Z,99.99
2022-09-22T04:50:06.860Z,99.99
2022-09-22T04:51:06.854Z,99.99
2022-09-22T04:52:06.840Z,99.99
2022-09-22T04:53:06.832Z,99.99
2022-09-22T04:54:06.879Z,99.99
2022-09-22T04:55:06.814Z,99.99
2022-09-22T04:56:06.798Z,99.99
2022-09-22T04:57:06.789Z,99.99
2022-09-22T04:58:06.778Z,99.99
2022-09-22T04:59:06.766Z,99.99
2022-09-22T05:00:06.760Z,99.99
2022-09-22T05:01:06.814Z,99.99
2022-09-22T05:02:06.738Z,99.99
2022-09-22T05:03:06.775Z,99.99
2022-09-22T05:04:06.717Z,99.99
2022-09-22T05:05:06.707Z,99.99
2022-09-22T05:06:06.703Z,99.99
2022-09-22T05:07:06.685Z,99.99
2022-09-22T05:08:06.677Z,99.99
2022-09-22T05:09:06.803Z,99.99
2022-09-22T05:10:06.652Z,99.99
2022-09-22T05:11:06.648Z,99.99
2022-09-22T05:12:06.642Z,99.99
2022-09-22T05:13:06.627Z,99.99
2022-09-22T05:14:06.616Z,99.99
2022-09-22T05:15:06.601Z,99.99
2022-09-22T05:16:06.649Z,99.99
2022-09-22T05:17:06.582Z,99.99
2022-09-22T05:18:06.569Z,99.99
2022-09-22T05:19:06.560Z,99.99
2022-09-22T05:20:06.550Z,99.99
2022-09-22T05:21:06.539Z,99.99
2022-09-22T05:22:06.527Z,99.99
2022-09-22T05:23:06.517Z,99.99
2022-09-22T05:24:06.602Z,99.99
2022-09-22T05:25:06.498Z,99.99
2022-09-22T05:26:06.488Z,99.99
2022-09-22T05:27:06.476Z,99.99
2022-09-22T05:28:06.462Z,99.99
2022-09-22T05:29:06.456Z,99.99
2022-09-22T05:30:06.443Z,99.99
2022-09-22T05:31:06.438Z,99.99
2022-09-22T05:32:06.435Z,99.99
2022-09-22T05:33:06.413Z,99.99
2022-09-22T05:34:06.402Z,99.99
2022-09-22T05:35:06.393Z,99.99
2022-09-22T05:36:06.382Z,99.99
2022-09-22T05:37:06.374Z,99.99
2022-09-22T05:38:06.365Z,99.99
2022-09-22T05:39:06.460Z,99.99
2022-09-22T05:40:06.366Z,99.99
2022-09-22T05:41:06.332Z,99.99
2022-09-22T05:42:10.773Z,99.99
2022-09-22T05:43:06.311Z,99.99
2022-09-22T05:44:06.301Z,99.99
2022-09-22T05:45:06.290Z,99.99
2022-09-22T05:46:06.328Z,99.99
2022-09-22T05:47:06.272Z,99.99
2022-09-22T05:48:06.261Z,98.87
2022-09-22T05:49:06.254Z,96.12
2022-09-22T05:50:06.244Z,93.37
2022-09-22T05:51:06.233Z,90.97
2022-09-22T05:52:06.223Z,89.25
2022-09-22T05:53:06.215Z,85.42
2022-09-22T05:54:06.350Z,84.67
2022-09-22T05:55:06.198Z,82.04
2022-09-22T05:56:06.187Z,79.25
2022-09-22T05:57:06.181Z,76.50
2022-09-22T05:58:06.169Z,76.02
2022-09-22T05:59:06.169Z,74.73
2022-09-22T06:00:06.158Z,76.81
2022-09-22T06:01:06.208Z,76.98
2022-09-22T06:02:18.112Z,79.20
2022-09-22T06:03:06.216Z,78.72
2022-09-22T06:04:06.121Z,79.68
2022-09-22T06:05:06.113Z,80.74
2022-09-22T06:06:06.104Z,82.12
2022-09-22T06:07:06.099Z,83.59
2022-09-22T06:08:06.084Z,84.45
2022-09-22T06:09:06.154Z,84.80
2022-09-22T06:10:06.070Z,85.00
2022-09-22T06:11:06.060Z,86.33
2022-09-22T06:12:06.053Z,87.43
2022-09-22T06:13:06.046Z,86.99
2022-09-22T06:14:06.036Z,84.77
2022-09-22T06:15:06.028Z,83.93
2022-09-22T06:16:06.030Z,81.67
2022-09-22T06:17:06.012Z,78.80
2022-09-22T06:18:06.000Z,77.71
2022-09-22T06:19:05.996Z,73.97
2022-09-22T06:20:05.988Z,72.31
2022-09-22T06:21:05.982Z,70.55
2022-09-22T06:22:05.970Z,71.87
2022-09-22T06:23:05.960Z,70.92
2022-09-22T06:24:06.069Z,71.67
2022-09-22T06:25:05.949Z,72.45
2022-09-22T06:26:05.940Z,74.01
2022-09-22T06:27:05.930Z,75.27
2022-09-22T06:28:05.924Z,76.32
2022-09-22T06:29:05.912Z,77.45
2022-09-22T06:30:05.907Z,77.89
2022-09-22T06:31:05.902Z,76.59
2022-09-22T06:32:05.935Z,76.18
2022-09-22T06:33:05.889Z,73.63
2022-09-22T06:34:07.748Z,70.62
2022-09-22T06:35:05.870Z,67.89
2022-09-22T06:36:05.865Z,68.23
2022-09-22T06:37:05.858Z,66.58
2022-09-22T06:38:05.849Z,64.39
2022-09-22T06:39:05.882Z,62.85
2022-09-22T06:40:05.855Z,62.71
2022-09-22T06:41:05.828Z,59.76
2022-09-22T06:42:05.844Z,60.97
2022-09-22T06:43:05.817Z,60.26
2022-09-22T06:44:05.809Z,59.58
2022-09-22T06:45:05.804Z,61.21
2022-09-22T06:46:05.875Z,64.34
2022-09-22T06:47:05.787Z,66.86
2022-09-22T06:48:09.783Z,68.18
2022-09-22T06:49:05.775Z,70.51
2022-09-22T06:50:05.766Z,73.02
2022-09-22T06:51:05.764Z,74.28
2022-09-22T06:52:05.759Z,76.09
2022-09-22T06:53:05.748Z,77.25
2022-09-22T06:54:05.784Z,78.20
2022-09-22T06:55:05.741Z,79.19
2022-09-22T06:56:05.727Z,80.52
2022-09-22T06:57:05.721Z,81.27
2022-09-22T06:58:05.715Z,82.64
2022-09-22T06:59:10.292Z,83.56
2022-09-22T07:00:05.699Z,84.17
2022-09-22T07:01:09.658Z,83.81
2022-09-22T07:02:05.747Z,84.93
2022-09-22T07:03:05.673Z,84.83
2022-09-22T07:04:05.667Z,84.93
2022-09-22T07:05:05.658Z,85.38
2022-09-22T07:06:05.648Z,86.61
2022-09-22T07:07:05.648Z,86.81
2022-09-22T07:08:05.636Z,87.63
2022-09-22T07:09:05.739Z,87.43
2022-09-22T07:10:05.616Z,87.84
2022-09-22T07:11:05.619Z,87.73
2022-09-22T07:12:05.604Z,87.53
2022-09-22T07:13:05.595Z,87.77
2022-09-22T07:14:05.588Z,87.77
2022-09-22T07:15:05.581Z,87.67
2022-09-22T07:16:05.611Z,87.77
2022-09-22T07:17:05.565Z,87.88
2022-09-22T07:18:05.560Z,88.49
2022-09-22T07:19:05.559Z,88.70
2022-09-22T07:20:05.539Z,88.70
2022-09-22T07:21:05.533Z,87.77
2022-09-22T07:22:05.521Z,87.98
2022-09-22T07:23:05.516Z,87.98
2022-09-22T07:24:05.596Z,88.29
2022-09-22T07:25:05.500Z,88.59
2022-09-22T07:26:05.490Z,88.39
2022-09-22T07:27:05.478Z,88.39
2022-09-22T07:28:05.474Z,88.08
2022-09-22T07:29:05.465Z,88.29
2022-09-22T07:30:05.459Z,87.67
2022-09-22T07:31:05.471Z,87.77
2022-09-22T07:32:05.498Z,87.94
2022-09-22T07:33:05.435Z,87.77
2022-09-22T07:34:05.426Z,88.96
2022-09-22T07:35:05.423Z,89.37
2022-09-22T07:36:05.404Z,89.37
2022-09-22T07:37:05.401Z,89.17
2022-09-22T07:38:05.391Z,89.06
2022-09-22T07:39:05.499Z,89.03
2022-09-22T07:40:14.106Z,88.92
2022-09-22T07:42:09.358Z,88.82
2022-09-22T07:43:09.333Z,88.51
2022-09-22T07:45:02.735Z,88.41
2022-09-22T07:46:02.719Z,88.31
2022-09-22T07:47:02.773Z,88.10
2022-09-22T07:48:02.691Z,87.59
2022-09-22T07:49:02.686Z,88.10
2022-09-22T07:50:02.682Z,87.90
2022-09-22T07:51:02.666Z,87.49
2022-09-22T07:52:02.669Z,87.85
2022-09-22T07:53:02.652Z,87.55
2022-09-22T07:54:02.648Z,87.65
2022-09-22T07:55:02.635Z,87.55
2022-09-22T07:56:02.623Z,87.85
2022-09-22T07:57:02.620Z,88.06
2022-09-22T07:58:02.612Z,87.76
2022-09-22T07:59:02.603Z,88.06
2022-09-22T08:00:02.607Z,88.57
2022-09-22T08:01:02.630Z,88.02
2022-09-22T08:02:02.640Z,87.71
2022-09-22T08:03:02.568Z,87.82
2022-09-22T08:04:02.563Z,87.67
2022-09-22T08:05:02.555Z,87.47
2022-09-22T08:06:05.966Z,85.73
2022-09-22T08:07:02.543Z,84.77
2022-09-22T08:08:02.531Z,85.28
2022-09-22T08:09:02.526Z,84.57
2022-09-22T08:10:02.516Z,84.98
2022-09-22T08:11:02.507Z,86.00
2022-09-22T08:12:02.500Z,85.08
2022-09-22T08:13:02.497Z,84.57
2022-09-22T08:14:02.489Z,85.04
2022-09-22T08:15:02.472Z,84.90
2022-09-22T08:16:02.536Z,84.01
2022-09-22T08:17:02.464Z,83.71
2022-09-22T08:18:02.453Z,84.22
2022-09-22T08:19:02.450Z,84.39
2022-09-22T08:20:02.438Z,84.28
2022-09-22T08:21:02.433Z,83.16
2022-09-22T08:22:02.419Z,83.78
2022-09-22T08:23:02.413Z,83.47
2022-09-22T08:24:02.410Z,83.16
2022-09-22T08:25:02.402Z,82.96
2022-09-22T08:26:02.392Z,82.96
2022-09-22T08:27:02.390Z,83.73
2022-09-22T08:28:02.385Z,82.35
2022-09-22T08:29:02.368Z,80.57
2022-09-22T08:30:02.376Z,80.98
2022-09-22T08:31:02.387Z,79.66
2022-09-22T08:32:02.345Z,79.86
2022-09-22T08:33:02.341Z,79.35
2022-09-22T08:34:02.330Z,79.45
2022-09-22T08:35:02.335Z,80.37
2022-09-22T08:36:02.314Z,80.94
2022-09-22T08:37:02.311Z,81.45
2022-09-22T08:38:02.306Z,81.76
2022-09-22T08:39:02.292Z,81.41
2022-09-22T08:40:02.345Z,81.52
2022-09-22T08:41:02.286Z,80.09
2022-09-22T08:42:02.276Z,80.19
2022-09-22T08:43:02.260Z,79.48
2022-09-22T08:44:02.260Z,79.58
2022-09-22T08:45:02.247Z,79.99
2022-09-22T08:46:02.237Z,80.09
2022-09-22T08:47:02.307Z,80.70
2022-09-22T08:48:02.226Z,79.07
2022-09-22T08:49:02.224Z,78.42
2022-09-22T08:50:02.338Z,78.22
2022-09-22T08:51:02.203Z,76.90
2022-09-22T08:52:02.194Z,77.61
2022-09-22T08:53:02.190Z,77.71
2022-09-22T08:54:03.728Z,76.79
2022-09-22T08:55:02.175Z,78.42
2022-09-22T08:56:02.168Z,78.12
2022-09-22T08:57:02.153Z,78.53
2022-09-22T08:58:02.153Z,78.32
2022-09-22T08:59:02.159Z,77.30
2022-09-22T09:00:02.160Z,76.56
2022-09-22T09:01:02.135Z,77.06
2022-09-22T09:02:02.194Z,75.95
2022-09-22T09:03:02.145Z,76.56
2022-09-22T09:04:02.106Z,78.08
2022-09-22T09:05:02.100Z,76.96
2022-09-22T09:06:02.103Z,77.67
2022-09-22T09:07:02.091Z,72.28
2022-09-22T09:08:02.081Z,73.91
2022-09-22T09:09:05.054Z,74.52
2022-09-22T09:10:02.091Z,74.82
2022-09-22T09:11:02.060Z,74.32
2022-09-22T09:12:02.059Z,75.43
2022-09-22T09:13:02.046Z,74.52
2022-09-22T09:14:02.041Z,74.62
2022-09-22T09:15:02.032Z,75.81
2022-09-22T09:16:02.058Z,75.20
2022-09-22T09:17:02.024Z,70.62
2022-09-22T09:18:02.022Z,72.14
2022-09-22T09:19:02.000Z,73.33
2022-09-22T09:20:02.006Z,73.30
2022-09-22T09:21:01.988Z,70.65
2022-09-22T09:22:01.986Z,72.48
2022-09-22T09:23:01.978Z,72.45
2022-09-22T09:26:01.958Z,70.92
2022-09-22T09:27:01.946Z,70.45
2022-09-22T09:28:01.940Z,71.53
2022-09-22T09:29:10.900Z,70.62
2022-09-22T09:30:01.934Z,69.30
2022-09-22T09:31:01.960Z,68.38
2022-09-22T09:32:01.918Z,66.55
2022-09-22T09:33:01.920Z,68.38
2022-09-22T09:34:01.902Z,67.13
2022-09-22T09:35:02.003Z,65.41
2022-09-22T09:36:01.887Z,67.74
2022-09-22T09:37:01.878Z,66.63
2022-09-22T09:38:01.880Z,65.27
2022-09-22T09:39:01.880Z,64.76
2022-09-22T09:40:01.914Z,65.07
2022-09-22T09:41:01.854Z,65.14
2022-09-22T09:42:01.850Z,65.14
2022-09-22T09:43:03.277Z,66.53
2022-09-22T09:44:01.844Z,65.92
2022-09-22T09:45:01.834Z,64.64
2022-09-22T09:46:01.889Z,62.30
2022-09-22T09:47:01.821Z,60.27
2022-09-22T09:48:01.812Z,62.13
2022-09-22T09:49:01.803Z,64.06
2022-09-22T09:50:01.802Z,65.14
2022-09-22T09:51:01.796Z,65.45
2022-09-22T09:52:01.797Z,66.56
2022-09-22T09:53:01.786Z,64.91
2022-09-22T09:54:01.897Z,57.03
2022-09-22T09:55:01.771Z,61.29
2022-09-22T09:56:01.766Z,59.74
2022-09-22T09:57:01.755Z,59.86
2022-09-22T09:58:01.755Z,60.27
2022-09-22T09:59:01.751Z,59.84
2022-09-22T10:00:01.748Z,60.35
2022-09-22T10:01:01.738Z,59.94
2022-09-22T10:02:01.780Z,61.25
2022-09-22T10:03:01.725Z,59.20
2022-09-22T10:04:01.775Z,59.33
2022-09-22T10:05:01.713Z,59.50
2022-09-22T10:06:01.712Z,60.21
2022-09-22T10:07:01.783Z,60.31
2022-09-22T10:08:01.707Z,60.52
2022-09-22T10:09:01.694Z,60.19
2022-09-22T10:10:01.766Z,62.01
2022-09-22T10:11:01.679Z,61.00
2022-09-22T10:12:01.683Z,60.19
2022-09-22T10:13:01.670Z,60.28
2022-09-22T10:14:01.663Z,61.43
2022-09-22T10:15:01.657Z,62.34
2022-09-22T10:16:01.718Z,61.00
2022-09-22T10:17:01.654Z,61.30
2022-09-22T10:18:01.645Z,62.31
2022-09-22T10:19:01.633Z,61.91
2022-09-22T10:20:01.668Z,60.79
2022-09-22T10:21:01.651Z,61.10
2022-09-22T10:22:01.619Z,59.07
2022-09-22T10:23:01.612Z,60.89
2022-09-22T10:24:01.718Z,60.39
2022-09-22T10:25:01.604Z,57.24
2022-09-22T10:26:01.645Z,58.47
2022-09-22T10:27:03.972Z,58.97
2022-09-22T10:28:01.582Z,57.35
2022-09-22T10:29:01.577Z,55.43
2022-09-22T10:30:01.594Z,55.83
2022-09-22T10:31:01.656Z,55.73
2022-09-22T10:32:01.563Z,56.05
2022-09-22T10:33:01.558Z,53.55
2022-09-22T10:34:01.554Z,55.78
2022-09-22T10:35:01.551Z,56.18
2022-09-22T10:36:01.541Z,56.26
2022-09-22T10:37:01.542Z,57.48
2022-09-22T10:38:01.529Z,56.05
2022-09-22T10:39:01.642Z,57.07
2022-09-22T10:40:01.590Z,55.85
2022-09-22T10:41:01.515Z,56.77
2022-09-22T10:42:01.509Z,56.84
2022-09-22T10:43:01.512Z,55.43
2022-09-22T10:44:20.999Z,55.52
2022-09-22T10:45:01.505Z,55.02
2022-09-22T10:46:01.537Z,54.61
2022-09-22T10:47:01.480Z,56.03
2022-09-22T10:48:01.471Z,55.93
2022-09-22T10:49:01.479Z,54.18
2022-09-22T10:50:01.470Z,53.40
2022-09-22T10:51:01.466Z,53.98
2022-09-22T10:52:01.454Z,53.60
2022-09-22T10:53:01.455Z,54.82
2022-09-22T10:54:01.438Z,55.22
2022-09-22T10:55:01.439Z,55.43
2022-09-22T10:56:01.430Z,55.60
2022-09-22T10:57:01.430Z,55.50
2022-09-22T10:58:01.422Z,54.08
2022-09-22T10:59:01.424Z,52.56
2022-09-22T11:00:01.408Z,52.76
2022-09-22T11:01:01.405Z,52.06
2022-09-22T11:02:01.472Z,53.47
2022-09-22T11:03:01.393Z,53.07
2022-09-22T11:04:01.492Z,51.45
2022-09-22T11:05:01.451Z,52.79
2022-09-22T11:06:01.377Z,54.59
2022-09-22T11:07:01.378Z,53.27
2022-09-22T11:08:01.368Z,51.83
2022-09-22T11:09:01.363Z,53.34
2022-09-22T11:10:01.406Z,53.96
2022-09-22T11:11:01.349Z,52.94
2022-09-22T11:12:01.343Z,52.51
2022-09-22T11:13:01.341Z,51.81
2022-09-22T11:14:01.334Z,52.72
2022-09-22T11:15:01.331Z,52.79
2022-09-22T11:16:01.380Z,51.17
2022-09-22T11:17:01.319Z,52.39
2022-09-22T11:18:01.316Z,51.37
2022-09-22T11:19:01.306Z,50.77
2022-09-22T11:20:01.300Z,49.15
2022-09-22T11:21:01.306Z,50.16
2022-09-22T11:22:01.297Z,51.48
2022-09-22T11:23:01.286Z,50.97
2022-09-22T11:24:01.290Z,51.76
2022-09-22T11:25:01.279Z,51.25
2022-09-22T11:26:01.276Z,51.45
2022-09-22T11:27:01.271Z,53.17
2022-09-22T11:28:01.262Z,51.45
2022-09-22T11:29:01.258Z,52.46
2022-09-22T11:30:01.253Z,50.04
2022-09-22T11:31:01.281Z,51.65
2022-09-22T11:32:01.245Z,52.36
2022-09-22T11:33:01.241Z,49.63
2022-09-22T11:34:01.236Z,49.66
2022-09-22T11:35:01.236Z,50.16
2022-09-22T11:36:01.221Z,51.68
2022-09-22T11:37:01.220Z,51.37
2022-09-22T11:38:01.216Z,51.78
2022-09-22T11:39:01.217Z,51.88
2022-09-22T11:40:01.346Z,51.05
2022-09-22T11:41:01.245Z,50.77
2022-09-22T11:42:01.197Z,51.35
2022-09-22T11:43:03.923Z,49.45
2022-09-22T11:44:01.323Z,49.66
2022-09-22T11:45:01.179Z,51.17
2022-09-22T11:46:01.285Z,52.39
2022-09-22T11:47:01.182Z,51.88
2022-09-22T11:48:01.173Z,51.76
2022-09-22T11:49:01.169Z,52.26
2022-09-22T11:50:01.165Z,49.43
2022-09-22T11:51:01.154Z,50.06
2022-09-22T11:52:01.154Z,51.98
2022-09-22T11:53:01.145Z,49.15
2022-09-22T11:54:01.138Z,49.58
2022-09-22T11:55:01.144Z,49.86
2022-09-22T11:56:01.131Z,49.98
2022-09-22T11:57:01.133Z,51.30
2022-09-22T11:58:01.121Z,52.39
2022-09-22T11:59:01.124Z,49.66
2022-09-22T12:00:01.112Z,47.43
2022-09-22T12:01:01.111Z,47.94
2022-09-22T12:02:01.167Z,49.07
2022-09-22T12:03:02.640Z,48.87
2022-09-22T12:04:01.087Z,47.74
2022-09-22T12:05:01.092Z,45.71
2022-09-22T12:06:01.082Z,45.10
2022-09-22T12:07:01.084Z,45.23
2022-09-22T12:08:01.073Z,47.25
2022-09-22T12:09:01.073Z,45.63
2022-09-22T12:10:01.062Z,47.13
2022-09-22T12:11:01.055Z,45.81
2022-09-22T12:12:01.051Z,46.42
2022-09-22T12:13:01.043Z,47.03
2022-09-22T12:14:01.050Z,47.03
2022-09-22T12:15:01.040Z,46.72
2022-09-22T12:16:01.179Z,47.83
2022-09-22T12:17:01.032Z,47.74
2022-09-22T12:18:01.025Z,47.71
2022-09-22T12:19:01.102Z,47.71
2022-09-22T12:20:01.015Z,46.20
2022-09-22T12:21:01.011Z,48.11
2022-09-22T12:22:01.005Z,48.22
2022-09-22T12:23:01.004Z,47.89
2022-09-22T12:24:01.038Z,45.99
2022-09-22T12:25:00.987Z,45.31
2022-09-22T12:26:00.985Z,46.04
2022-09-22T12:27:00.984Z,45.96
2022-09-22T12:28:00.985Z,46.36
2022-09-22T12:29:00.973Z,45.45
2022-09-22T12:30:00.973Z,46.06
2022-09-22T12:31:01.078Z,47.09
2022-09-22T12:32:00.955Z,47.60
2022-09-22T12:33:00.957Z,48.00
2022-09-22T12:34:01.002Z,47.09
2022-09-22T12:35:00.943Z,48.11
2022-09-22T12:36:00.937Z,49.93
2022-09-22T12:37:00.928Z,47.98
2022-09-22T12:38:00.932Z,48.39
2022-09-22T12:39:00.920Z,47.07
2022-09-22T12:40:00.922Z,48.28
2022-09-22T12:41:00.913Z,46.44
2022-09-22T12:42:00.908Z,47.15
2022-09-22T12:43:00.906Z,44.92
2022-09-22T12:44:00.908Z,46.54
2022-09-22T12:45:00.897Z,46.24
2022-09-22T12:46:00.904Z,46.14
2022-09-22T12:47:00.911Z,45.73
2022-09-22T12:48:00.879Z,45.41
2022-09-22T12:49:00.916Z,46.01
2022-09-22T12:50:00.869Z,44.72
2022-09-22T12:51:00.862Z,46.01
2022-09-22T12:52:00.857Z,45.71
2022-09-22T12:53:00.859Z,45.10
2022-09-22T12:54:00.889Z,45.71
2022-09-22T12:55:00.841Z,45.83
2022-09-22T12:56:00.836Z,47.23
2022-09-22T12:57:00.888Z,46.24
2022-09-22T12:58:00.829Z,46.34
2022-09-22T12:59:00.829Z,46.24
2022-09-22T13:00:00.817Z,46.75
2022-09-22T13:01:01.002Z,47.86
2022-09-22T13:02:00.827Z,44.49
2022-09-22T13:03:00.801Z,45.20
2022-09-22T13:04:00.798Z,44.49